Time;durP1;ratioP1;P1;durP2;ratioP2;P2;SDS_P1;SDS_P2;PMS_P1;PMS_P2;Temp;Humidity;BMP_temperature;BMP_pressure;BME280_temperature;BME280_humidity;BME280_pressure;Samples;Min_cycle;Max_cycle;Signal;HPM_P1;HPM_P2
2022/12/02 00:00:42;;;;;;;42.57;21.47;;;;;;;;;;5051079;28;20282;-86
2022/12/02 00:03:10;;;;;;;44.03;21.27;;;;;;;;;;5051517;28;20033;-86
2022/12/02 00:05:35;;;;;;;43.45;20.42;;;;;;;;;;5061287;28;20029;-90
2022/12/02 00:08:09;;;;;;;42.10;20.02;;;;;;;;;;5058669;28;20047;-85
2022/12/02 00:10:36;;;;;;;49.83;22.95;;;;;;;;;;5050747;28;20040;-87
2022/12/02 00:13:10;;;;;;;52.55;24.80;;;;;;;;;;5050541;28;20611;-88
2022/12/02 00:15:40;;;;;;;49.20;22.42;;;;;;;;;;5051024;28;20029;-86
2022/12/02 00:18:06;;;;;;;46.50;22.60;;;;;;;;;;5049990;28;20045;-87
2022/12/02 00:20:31;;;;;;;41.55;21.23;;;;;;;;;;5050716;28;20037;-86
2022/12/02 00:22:57;;;;;;;40.27;20.07;;;;;;;;;;5044978;28;20053;-86
2022/12/02 00:25:22;;;;;;;43.80;21.70;;;;;;;;;;5051383;28;20171;-85
2022/12/02 00:27:47;;;;;;;49.50;23.17;;;;;;;;;;5051396;28;20327;-85
2022/12/02 00:30:12;;;;;;;44.33;22.17;;;;;;;;;;5046388;28;20038;-87
2022/12/02 00:32:38;;;;;;;46.03;22.77;;;;;;;;;;5040644;28;20373;-87
2022/12/02 00:35:03;;;;;;;44.67;21.93;;;;;;;;;;5042791;28;20048;-87
2022/12/02 00:37:28;;;;;;;41.83;21.15;;;;;;;;;;5040509;28;20307;-87
2022/12/02 00:39:53;;;;;;;47.83;22.20;;;;;;;;;;5037428;28;20036;-87
2022/12/02 00:42:18;;;;;;;49.00;22.30;;;;;;;;;;5041591;28;20504;-87
2022/12/02 00:47:27;;;;;;;40.22;20.88;;;;;;;;;;5043171;28;20450;-87
2022/12/02 00:49:53;;;;;;;38.10;19.50;;;;;;;;;;5043332;28;20057;-87
2022/12/02 00:52:18;;;;;;;45.30;22.03;;;;;;;;;;5036957;28;20044;-87
2022/12/02 00:54:43;;;;;;;39.95;20.13;;;;;;;;;;5039042;28;20612;-87
2022/12/02 00:57:08;;;;;;;35.37;18.40;;;;;;;;;;5047351;28;20116;-86
2022/12/02 00:59:33;;;;;;;33.17;16.98;;;;;;;;;;5032106;28;20330;-87
2022/12/02 01:01:59;;;;;;;39.70;19.80;;;;;;;;;;5043117;28;20077;-88
2022/12/02 01:04:24;;;;;;;33.30;17.17;;;;;;;;;;5044916;28;20129;-87
2022/12/02 01:06:49;;;;;;;34.80;16.37;;;;;;;;;;5032599;28;20041;-88
2022/12/02 01:09:14;;;;;;;33.53;16.03;;;;;;;;;;5047568;28;20404;-87
2022/12/02 01:11:39;;;;;;;33.35;15.85;;;;;;;;;;5046954;28;20802;-87
2022/12/02 01:14:05;;;;;;;29.00;14.77;;;;;;;;;;5035679;28;20120;-87
2022/12/02 01:16:30;;;;;;;31.83;15.57;;;;;;;;;;5045797;28;20283;-88
2022/12/02 01:18:55;;;;;;;35.07;17.83;;;;;;;;;;5044920;28;20038;-87
2022/12/02 01:21:22;;;;;;;34.15;17.35;;;;;;;;;;5048594;28;21151;-87
2022/12/02 01:23:47;;;;;;;33.00;15.88;;;;;;;;;;5049805;28;20076;-86
2022/12/02 01:26:12;;;;;;;28.45;14.70;;;;;;;;;;5042878;28;20412;-89
2022/12/02 01:28:37;;;;;;;34.33;16.23;;;;;;;;;;5051659;28;20496;-87
2022/12/02 01:31:02;;;;;;;42.40;20.50;;;;;;;;;;5051197;28;20036;-88
2022/12/02 01:33:28;;;;;;;38.47;18.40;;;;;;;;;;5050741;28;20403;-87
2022/12/02 01:35:53;;;;;;;36.17;17.50;;;;;;;;;;5048144;28;20280;-87
2022/12/02 01:38:18;;;;;;;32.30;16.10;;;;;;;;;;5039681;28;20048;-87
2022/12/02 01:40:43;;;;;;;27.13;14.37;;;;;;;;;;5048647;28;20033;-87
2022/12/02 01:43:09;;;;;;;32.00;16.33;;;;;;;;;;5048024;28;20454;-88
2022/12/02 01:45:34;;;;;;;37.78;17.02;;;;;;;;;;5043394;28;20090;-87
2022/12/02 01:48:00;;;;;;;31.63;15.90;;;;;;;;;;5049247;28;20037;-87
2022/12/02 01:50:25;;;;;;;32.08;15.13;;;;;;;;;;5047107;28;20045;-88
2022/12/02 01:52:51;;;;;;;31.52;15.52;;;;;;;;;;5047469;28;20041;-87
2022/12/02 01:55:19;;;;;;;30.88;16.08;;;;;;;;;;5042737;28;20079;-87
2022/12/02 01:57:44;;;;;;;39.70;19.48;;;;;;;;;;5034647;28;20059;-87
2022/12/02 02:00:10;;;;;;;29.80;15.85;;;;;;;;;;5046234;28;20032;-87
2022/12/02 02:02:36;;;;;;;37.97;18.45;;;;;;;;;;5048971;28;20033;-87
2022/12/02 02:05:03;;;;;;;40.83;19.05;;;;;;;;;;5050309;28;20577;-88
2022/12/02 02:07:30;;;;;;;34.30;16.27;;;;;;;;;;5050424;28;20504;-87
2022/12/02 02:09:55;;;;;;;32.13;16.15;;;;;;;;;;5051920;28;20120;-88
2022/12/02 02:12:20;;;;;;;34.47;17.20;;;;;;;;;;5049930;28;20044;-87
2022/12/02 02:14:46;;;;;;;34.50;17.60;;;;;;;;;;5052253;28;20641;-87
2022/12/02 02:17:11;;;;;;;33.10;15.65;;;;;;;;;;5050956;28;20040;-86
2022/12/02 02:19:36;;;;;;;28.30;14.45;;;;;;;;;;5051301;28;20029;-86
2022/12/02 02:22:04;;;;;;;25.00;13.45;;;;;;;;;;5049231;28;20037;-87
2022/12/02 02:24:29;;;;;;;32.22;17.30;;;;;;;;;;5049306;28;20037;-87
2022/12/02 02:26:54;;;;;;;31.57;15.33;;;;;;;;;;5050900;28;20037;-86
2022/12/02 02:29:19;;;;;;;24.80;13.00;;;;;;;;;;5049592;28;20037;-87
2022/12/02 02:31:45;;;;;;;26.80;13.80;;;;;;;;;;5050861;28;20279;-87
2022/12/02 02:34:10;;;;;;;24.73;12.63;;;;;;;;;;5048807;28;20037;-86
2022/12/02 02:36:36;;;;;;;26.58;12.98;;;;;;;;;;5044451;28;20061;-85
2022/12/02 02:39:01;;;;;;;27.67;13.88;;;;;;;;;;5040239;28;20068;-87
2022/12/02 02:41:26;;;;;;;27.30;14.70;;;;;;;;;;5046239;28;20033;-87
2022/12/02 02:43:52;;;;;;;30.38;14.35;;;;;;;;;;5048495;28;20037;-87
2022/12/02 02:46:17;;;;;;;27.23;14.00;;;;;;;;;;5049373;28;21765;-86
2022/12/02 02:48:43;;;;;;;28.77;13.93;;;;;;;;;;5046872;28;20033;-87
2022/12/02 02:51:09;;;;;;;28.02;13.98;;;;;;;;;;5047069;28;20044;-87
2022/12/02 02:53:34;;;;;;;34.55;17.20;;;;;;;;;;5037362;28;20056;-87
2022/12/02 02:55:59;;;;;;;29.23;15.35;;;;;;;;;;5048667;28;20052;-86
2022/12/02 02:58:25;;;;;;;27.80;13.73;;;;;;;;;;5047987;28;20048;-87
2022/12/02 03:00:53;;;;;;;24.63;12.77;;;;;;;;;;5044083;28;20283;-87
2022/12/02 03:03:19;;;;;;;25.10;12.38;;;;;;;;;;5046988;28;20503;-85
2022/12/02 03:05:45;;;;;;;33.85;16.67;;;;;;;;;;5035401;28;20060;-85
2022/12/02 03:08:10;;;;;;;35.80;17.40;;;;;;;;;;5047611;28;20041;-86
2022/12/02 03:10:36;;;;;;;31.55;16.23;;;;;;;;;;5049469;28;20207;-87
2022/12/02 03:13:01;;;;;;;37.35;18.08;;;;;;;;;;5047396;28;20091;-86
2022/12/02 03:15:27;;;;;;;40.57;18.63;;;;;;;;;;5045741;28;20116;-86
2022/12/02 03:17:53;;;;;;;39.22;18.50;;;;;;;;;;5043413;28;20374;-86
2022/12/02 03:20:19;;;;;;;34.17;16.77;;;;;;;;;;5046141;28;20116;-85
2022/12/02 03:22:44;;;;;;;38.60;19.58;;;;;;;;;;5038242;28;20038;-87
2022/12/02 03:25:09;;;;;;;37.85;18.45;;;;;;;;;;5036533;28;20084;-86
2022/12/02 03:27:35;;;;;;;40.15;18.67;;;;;;;;;;5047894;28;20677;-85
2022/12/02 03:30:00;;;;;;;34.58;17.58;;;;;;;;;;5047628;28;20163;-87
2022/12/02 03:32:25;;;;;;;42.63;19.10;;;;;;;;;;5048048;28;20033;-87
2022/12/02 03:34:51;;;;;;;37.17;19.77;;;;;;;;;;5036137;28;20038;-87
2022/12/02 03:37:16;;;;;;;33.85;16.48;;;;;;;;;;5047611;28;20070;-87
2022/12/02 03:39:41;;;;;;;28.27;15.13;;;;;;;;;;5036310;28;20029;-86
2022/12/02 03:42:06;;;;;;;25.97;13.10;;;;;;;;;;5038282;28;20079;-87
2022/12/02 03:44:32;;;;;;;23.88;12.63;;;;;;;;;;5046289;28;20272;-86
2022/12/02 03:46:57;;;;;;;24.27;12.32;;;;;;;;;;5045557;28;20033;-87
2022/12/02 03:49:22;;;;;;;24.13;12.63;;;;;;;;;;5045738;28;20103;-87
2022/12/02 03:51:47;;;;;;;;;;;;;;;;;;5046288;28;20037;-86
2022/12/02 03:54:13;;;;;;;33.38;15.27;;;;;;;;;;5047582;28;19962;-87
2022/12/02 03:56:39;;;;;;;30.85;14.90;;;;;;;;;;5041209;28;20568;-86
2022/12/02 03:59:04;;;;;;;25.45;14.07;;;;;;;;;;5043503;28;20041;-86
2022/12/02 04:01:29;;;;;;;27.17;14.17;;;;;;;;;;5046348;28;20082;-87
2022/12/02 04:03:55;;;;;;;23.63;12.50;;;;;;;;;;5044571;28;20292;-87
2022/12/02 04:06:20;;;;;;;18.90;10.30;;;;;;;;;;5048111;28;20120;-87
2022/12/02 04:08:45;;;;;;;23.83;11.48;;;;;;;;;;5048692;28;20036;-87
2022/12/02 04:11:10;;;;;;;28.60;14.93;;;;;;;;;;5048572;28;20663;-86
2022/12/02 04:13:36;;;;;;;30.60;14.63;;;;;;;;;;5048505;28;20852;-87
2022/12/02 04:16:01;;;;;;;26.52;13.52;;;;;;;;;;5048566;28;20029;-87
2022/12/02 04:18:26;;;;;;;33.22;16.60;;;;;;;;;;5048609;28;20480;-86
2022/12/02 04:20:51;;;;;;;30.53;17.30;;;;;;;;;;5054662;28;20060;-87
2022/12/02 04:23:18;;;;;;;35.10;18.30;;;;;;;;;;5049352;28;20295;-86
2022/12/02 04:25:43;;;;;;;37.17;18.90;;;;;;;;;;5051524;28;20052;-85
2022/12/02 04:28:08;;;;;;;36.27;18.57;;;;;;;;;;5067898;28;20037;-84
2022/12/02 04:30:33;;;;;;;31.47;16.60;;;;;;;;;;5060171;28;20029;-86
2022/12/02 04:32:58;;;;;;;28.27;15.73;;;;;;;;;;5048814;28;20284;-87
2022/12/02 04:35:24;;;;;;;37.50;18.87;;;;;;;;;;5051463;28;20552;-87
2022/12/02 04:37:50;;;;;;;25.97;16.37;;;;;;;;;;5037598;28;20417;-86
2022/12/02 04:40:16;;;;;;;26.30;13.50;;;;;;;;;;5047423;28;20075;-86
2022/12/02 04:42:41;;;;;;;37.55;18.80;;;;;;;;;;5038887;28;20064;-85
2022/12/02 04:45:07;;;;;;;35.80;18.17;;;;;;;;;;5038166;28;20196;-87
2022/12/02 04:47:32;;;;;;;36.42;18.02;;;;;;;;;;5043236;28;20876;-87
2022/12/02 04:49:57;;;;;;;36.63;18.50;;;;;;;;;;5041281;28;20121;-86
2022/12/02 04:52:22;;;;;;;37.33;17.90;;;;;;;;;;5038383;28;20762;-87
2022/12/02 04:54:48;;;;;;;30.93;16.13;;;;;;;;;;5048684;28;20268;-86
2022/12/02 04:57:13;;;;;;;31.17;16.90;;;;;;;;;;5049551;28;20306;-86
2022/12/02 04:59:38;;;;;;;28.92;14.85;;;;;;;;;;5049771;28;20084;-85
2022/12/02 05:02:03;;;;;;;28.67;14.10;;;;;;;;;;5050625;28;20036;-86
2022/12/02 05:04:29;;;;;;;30.43;15.47;;;;;;;;;;5052807;28;20496;-86
2022/12/02 05:06:54;;;;;;;30.93;17.30;;;;;;;;;;5049807;28;20067;-86
2022/12/02 05:09:19;;;;;;;35.40;17.70;;;;;;;;;;5055938;28;20311;-85
2022/12/02 05:11:44;;;;;;;36.20;18.10;;;;;;;;;;5060306;28;20041;-86
2022/12/02 05:14:09;;;;;;;34.57;18.40;;;;;;;;;;5060171;28;20740;-86
2022/12/02 05:16:34;;;;;;;35.40;17.60;;;;;;;;;;5060186;28;20096;-86
2022/12/02 05:19:00;;;;;;;31.93;16.87;;;;;;;;;;5058228;28;20315;-86
2022/12/02 05:21:25;;;;;;;32.60;16.08;;;;;;;;;;5058609;28;20318;-86
2022/12/02 05:23:50;;;;;;;29.80;14.40;;;;;;;;;;5053150;28;20099;-86
2022/12/02 05:26:15;;;;;;;26.20;13.67;;;;;;;;;;5050960;28;20053;-86
2022/12/02 05:28:41;;;;;;;29.73;15.63;;;;;;;;;;5059602;28;20044;-87
2022/12/02 05:31:06;;;;;;;30.67;16.00;;;;;;;;;;5036945;28;20064;-87
2022/12/02 05:33:31;;;;;;;28.85;15.45;;;;;;;;;;5046192;28;20090;-86
2022/12/02 05:35:56;;;;;;;31.93;15.87;;;;;;;;;;5048590;28;20492;-87
2022/12/02 05:38:21;;;;;;;26.37;14.53;;;;;;;;;;5046875;28;20298;-87
2022/12/02 05:40:47;;;;;;;21.57;12.37;;;;;;;;;;5048777;28;20048;-86
2022/12/02 05:43:22;;;;;;;21.73;11.07;;;;;;;;;;5044243;28;20029;-85
2022/12/02 05:45:47;;;;;;;20.60;10.68;;;;;;;;;;5039812;28;20118;-86
2022/12/02 05:48:14;;;;;;;19.80;10.43;;;;;;;;;;5050856;28;20052;-86
2022/12/02 05:50:40;;;;;;;16.52;9.75;;;;;;;;;;5052363;28;20268;-87
2022/12/02 05:53:06;;;;;;;26.98;15.13;;;;;;;;;;5051883;28;20040;-87
2022/12/02 05:55:33;;;;;;;25.95;13.85;;;;;;;;;;5044741;28;20125;-86
2022/12/02 05:57:59;;;;;;;25.70;13.13;;;;;;;;;;5041399;28;20029;-86
2022/12/02 06:00:25;;;;;;;26.83;13.25;;;;;;;;;;5049305;28;20040;-87
2022/12/02 06:02:52;;;;;;;36.90;18.13;;;;;;;;;;5039529;28;20048;-86
2022/12/02 06:05:17;;;;;;;29.90;15.48;;;;;;;;;;5043317;28;20310;-87
2022/12/02 06:07:43;;;;;;;35.45;17.23;;;;;;;;;;5047717;28;20033;-85
2022/12/02 06:10:18;;;;;;;27.77;14.68;;;;;;;;;;5046277;28;20116;-86
2022/12/02 06:12:43;;;;;;;27.50;13.70;;;;;;;;;;5044289;28;20076;-86
2022/12/02 06:15:12;;;;;;;26.17;13.95;;;;;;;;;;5028203;28;20508;-87
2022/12/02 06:17:37;;;;;;;22.05;11.90;;;;;;;;;;5044513;28;20037;-86
2022/12/02 06:20:04;;;;;;;22.03;11.63;;;;;;;;;;5048701;28;20071;-87
2022/12/02 06:22:30;;;;;;;25.00;13.45;;;;;;;;;;5048452;28;20267;-87
2022/12/02 06:24:58;;;;;;;29.77;14.80;;;;;;;;;;5049003;28;20059;-86
2022/12/02 06:27:23;;;;;;;31.30;15.75;;;;;;;;;;5050454;28;20098;-85
2022/12/02 06:29:51;;;;;;;31.60;16.30;;;;;;;;;;5030280;28;20037;-87
2022/12/02 06:32:21;;;;;;;28.02;15.52;;;;;;;;;;5028030;28;20049;-87
2022/12/02 06:34:48;;;;;;;35.05;17.70;;;;;;;;;;5048317;28;20040;-87
2022/12/02 06:37:23;;;;;;;37.90;20.02;;;;;;;;;;5050542;28;20124;-87
2022/12/02 06:39:52;;;;;;;40.63;21.20;;;;;;;;;;5048868;28;20041;-87
2022/12/02 06:42:29;;;;;;;45.95;24.35;;;;;;;;;;5048170;28;20041;-86
2022/12/02 06:45:06;;;;;;;48.42;26.05;;;;;;;;;;5050229;28;20520;-87
2022/12/02 06:47:31;;;;;;;42.03;22.80;;;;;;;;;;5050771;28;20037;-87
2022/12/02 06:50:03;;;;;;;45.57;23.73;;;;;;;;;;5049191;28;20035;-87
2022/12/02 06:52:28;;;;;;;39.97;21.25;;;;;;;;;;5049708;28;20325;-86
2022/12/02 06:54:53;;;;;;;38.80;20.73;;;;;;;;;;5051438;28;20120;-86
2022/12/02 06:57:19;;;;;;;35.83;19.20;;;;;;;;;;5051333;28;20430;-86
2022/12/02 06:59:46;;;;;;;37.10;20.00;;;;;;;;;;5050603;28;20037;-87
2022/12/02 07:02:20;;;;;;;40.13;19.73;;;;;;;;;;5050561;28;20082;-85
2022/12/02 07:04:48;;;;;;;46.90;22.65;;;;;;;;;;5051637;28;20033;-86
2022/12/02 07:07:25;;;;;;;43.67;21.25;;;;;;;;;;5049834;28;20539;-85
2022/12/02 07:09:51;;;;;;;;;;;;;;;;;;5049018;28;20078;-87
2022/12/02 07:12:20;;;;;;;41.60;18.90;;;;;;;;;;5047607;28;19963;-87
2022/12/02 07:14:46;;;;;;;38.08;18.60;;;;;;;;;;5047998;28;20032;-87
2022/12/02 07:17:20;;;;;;;37.88;18.80;;;;;;;;;;5047873;28;20044;-87
2022/12/02 07:19:47;;;;;;;40.08;19.20;;;;;;;;;;5050240;28;20033;-86
2022/12/02 07:22:13;;;;;;;43.47;19.50;;;;;;;;;;5057105;28;20065;-86
2022/12/02 07:24:39;;;;;;;39.03;17.88;;;;;;;;;;5058259;28;20056;-86
2022/12/02 07:27:12;;;;;;;38.60;19.08;;;;;;;;;;5059341;28;20048;-86
2022/12/02 07:29:37;;;;;;;41.65;19.08;;;;;;;;;;5064055;28;20029;-86
2022/12/02 07:32:02;;;;;;;37.80;18.48;;;;;;;;;;5064091;28;20124;-86
2022/12/02 07:34:27;;;;;;;36.40;18.43;;;;;;;;;;5063990;28;20044;-85
2022/12/02 07:36:53;;;;;;;37.60;17.80;;;;;;;;;;5064758;28;20535;-86
2022/12/02 07:39:18;;;;;;;39.40;18.40;;;;;;;;;;5063023;28;20032;-87
2022/12/02 07:41:43;;;;;;;46.53;20.87;;;;;;;;;;5061340;28;20643;-88
2022/12/02 07:44:08;;;;;;;37.10;17.77;;;;;;;;;;5059315;28;20316;-87
2022/12/02 07:46:33;;;;;;;43.40;20.33;;;;;;;;;;5049858;28;20268;-86
2022/12/02 07:48:59;;;;;;;40.15;20.20;;;;;;;;;;5048477;28;20106;-88
2022/12/02 07:51:24;;;;;;;45.53;20.93;;;;;;;;;;5048148;28;20037;-88
2022/12/02 07:53:49;;;;;;;43.80;20.25;;;;;;;;;;5048376;28;20275;-87
2022/12/02 07:56:15;;;;;;;44.55;20.45;;;;;;;;;;5030702;28;20063;-86
2022/12/02 07:58:41;;;;;;;40.67;19.10;;;;;;;;;;5047648;28;20029;-86
2022/12/02 08:01:06;;;;;;;40.63;19.13;;;;;;;;;;5047689;28;20047;-86
2022/12/02 08:03:31;;;;;;;39.07;18.77;;;;;;;;;;5046690;28;20040;-88
2022/12/02 08:05:56;;;;;;;40.00;18.73;;;;;;;;;;5047121;28;20804;-87
2022/12/02 08:08:21;;;;;;;36.20;17.60;;;;;;;;;;5047134;28;20681;-86
2022/12/02 08:10:47;;;;;;;42.57;19.03;;;;;;;;;;5043457;28;20691;-86
2022/12/02 08:13:12;;;;;;;43.67;19.97;;;;;;;;;;5045105;28;20041;-88
2022/12/02 08:15:37;;;;;;;39.77;19.50;;;;;;;;;;5047341;28;20045;-86
2022/12/02 08:18:02;;;;;;;43.60;20.17;;;;;;;;;;5047140;28;20742;-87
2022/12/02 08:20:29;;;;;;;38.30;18.03;;;;;;;;;;5046424;28;20066;-86
2022/12/02 08:22:54;;;;;;;33.60;17.65;;;;;;;;;;5046903;28;20276;-86
2022/12/02 08:25:19;;;;;;;38.43;18.70;;;;;;;;;;5047575;28;20206;-87
2022/12/02 08:27:44;;;;;;;37.90;18.47;;;;;;;;;;5049406;28;21081;-87
2022/12/02 08:30:11;;;;;;;31.03;16.50;;;;;;;;;;5051992;28;20040;-87
2022/12/02 08:32:36;;;;;;;28.75;14.40;;;;;;;;;;5051843;28;20032;-86
2022/12/02 08:35:01;;;;;;;32.38;16.13;;;;;;;;;;5052096;28;20108;-87
2022/12/02 08:37:27;;;;;;;32.15;16.77;;;;;;;;;;5052980;28;20049;-88
2022/12/02 08:39:52;;;;;;;38.88;17.38;;;;;;;;;;5052731;28;20102;-87
2022/12/02 08:42:17;;;;;;;30.53;15.53;;;;;;;;;;5051294;28;20033;-88
2022/12/02 08:44:42;;;;;;;37.40;18.00;;;;;;;;;;5051694;28;20087;-86
2022/12/02 08:47:08;;;;;;;38.10;18.23;;;;;;;;;;5052828;28;20043;-88
2022/12/02 08:49:33;;;;;;;33.63;16.90;;;;;;;;;;5054671;28;20278;-86
2022/12/02 08:51:58;;;;;;;31.37;16.33;;;;;;;;;;5054603;28;20040;-86
2022/12/02 08:54:23;;;;;;;34.10;16.35;;;;;;;;;;5058629;28;20101;-88
2022/12/02 08:56:48;;;;;;;31.02;15.52;;;;;;;;;;5066683;28;20079;-87
2022/12/02 08:59:14;;;;;;;29.90;15.63;;;;;;;;;;5054874;28;20037;-87
2022/12/02 09:01:39;;;;;;;29.23;16.08;;;;;;;;;;5055707;28;20033;-88
2022/12/02 09:04:05;;;;;;;31.85;16.17;;;;;;;;;;5053514;28;20044;-87
2022/12/02 09:06:30;;;;;;;30.90;15.38;;;;;;;;;;5055415;28;20060;-88
2022/12/02 09:08:55;;;;;;;30.95;15.57;;;;;;;;;;5053308;28;20037;-86
2022/12/02 09:11:21;;;;;;;27.65;14.68;;;;;;;;;;5051724;28;20033;-87
2022/12/02 09:13:46;;;;;;;28.50;15.73;;;;;;;;;;5052136;28;20029;-86
2022/12/02 09:16:11;;;;;;;33.23;16.97;;;;;;;;;;5052187;28;20557;-86
2022/12/02 09:18:37;;;;;;;30.63;15.65;;;;;;;;;;5054375;28;20416;-86
2022/12/02 09:21:02;;;;;;;28.88;15.73;;;;;;;;;;5055422;28;20527;-86
2022/12/02 09:23:30;;;;;;;30.60;16.35;;;;;;;;;;5062084;28;20037;-87
2022/12/02 09:25:55;;;;;;;30.48;15.73;;;;;;;;;;5061348;28;20052;-86
2022/12/02 09:28:22;;;;;;;31.65;15.50;;;;;;;;;;5058840;28;20415;-86
2022/12/02 09:30:47;;;;;;;29.98;15.15;;;;;;;;;;5062098;28;20492;-88
2022/12/02 09:33:13;;;;;;;32.63;16.45;;;;;;;;;;5060211;28;20052;-87
2022/12/02 09:35:38;;;;;;;34.37;16.33;;;;;;;;;;5059626;28;20037;-86
2022/12/02 09:38:03;;;;;;;31.83;15.93;;;;;;;;;;5060212;28;20759;-88
2022/12/02 09:40:28;;;;;;;30.17;14.90;;;;;;;;;;5055287;28;20053;-86
2022/12/02 09:42:53;;;;;;;27.00;14.63;;;;;;;;;;5056622;28;20706;-87
2022/12/02 09:45:19;;;;;;;29.00;14.82;;;;;;;;;;5057820;28;20786;-86
2022/12/02 09:47:44;;;;;;;29.60;14.98;;;;;;;;;;5057560;28;20471;-86
2022/12/02 09:50:12;;;;;;;26.58;13.25;;;;;;;;;;5057932;28;20233;-89
2022/12/02 09:52:37;;;;;;;28.88;15.10;;;;;;;;;;5058372;28;20044;-86
2022/12/02 09:55:09;;;;;;;25.55;13.95;;;;;;;;;;5058895;28;20042;-86
2022/12/02 09:57:35;;;;;;;26.15;13.93;;;;;;;;;;5057404;28;20033;-86
2022/12/02 10:00:02;;;;;;;25.37;13.77;;;;;;;;;;5057304;28;20064;-88
2022/12/02 10:02:29;;;;;;;26.27;13.95;;;;;;;;;;5057012;28;20487;-86
2022/12/02 10:04:56;;;;;;;24.05;12.95;;;;;;;;;;5057711;28;20045;-85
2022/12/02 10:07:21;;;;;;;24.70;13.65;;;;;;;;;;5059142;28;20037;-86
2022/12/02 10:09:46;;;;;;;28.47;15.60;;;;;;;;;;5058865;28;20056;-89
2022/12/02 10:12:11;;;;;;;26.23;13.63;;;;;;;;;;5058654;28;20148;-88
2022/12/02 10:14:37;;;;;;;27.02;15.02;;;;;;;;;;5057397;28;20040;-88
2022/12/02 10:17:09;;;;;;;26.17;14.07;;;;;;;;;;5057736;28;20033;-85
2022/12/02 10:19:34;;;;;;;26.83;14.75;;;;;;;;;;5057454;28;20040;-85
2022/12/02 10:22:00;;;;;;;24.92;14.02;;;;;;;;;;5057572;28;20033;-86
2022/12/02 10:24:37;;;;;;;24.73;14.30;;;;;;;;;;5057215;28;20112;-86
2022/12/02 10:27:03;;;;;;;24.70;14.23;;;;;;;;;;5056379;28;20347;-86
2022/12/02 10:29:29;;;;;;;26.77;14.18;;;;;;;;;;5056458;28;20091;-87
2022/12/02 10:31:54;;;;;;;23.75;13.40;;;;;;;;;;5056708;28;20025;-86
2022/12/02 10:34:20;;;;;;;22.83;12.33;;;;;;;;;;5057102;28;20598;-87
2022/12/02 10:36:45;;;;;;;22.02;12.68;;;;;;;;;;5055680;28;20276;-86
2022/12/02 10:39:20;;;;;;;22.33;12.98;;;;;;;;;;5056945;28;20037;-85
2022/12/02 10:41:46;;;;;;;22.45;12.63;;;;;;;;;;5055161;28;20036;-88
2022/12/02 10:44:19;;;;;;;22.30;12.63;;;;;;;;;;5055510;28;20044;-86
2022/12/02 10:46:44;;;;;;;20.15;12.10;;;;;;;;;;5056312;28;20052;-86
2022/12/02 10:49:29;;;;;;;21.13;11.68;;;;;;;;;;5053832;28;20415;-85
2022/12/02 10:51:57;;;;;;;21.65;11.88;;;;;;;;;;5054891;28;20037;-86
2022/12/02 10:54:24;;;;;;;23.00;12.95;;;;;;;;;;5054048;28;20025;-88
2022/12/02 10:56:50;;;;;;;19.65;11.82;;;;;;;;;;5053516;28;20037;-85
2022/12/02 10:59:15;;;;;;;20.23;11.75;;;;;;;;;;5055521;28;20072;-85
2022/12/02 11:01:41;;;;;;;21.92;12.52;;;;;;;;;;5055546;28;20124;-87
2022/12/02 11:04:10;;;;;;;19.52;11.73;;;;;;;;;;5052552;28;20066;-85
2022/12/02 11:06:36;;;;;;;21.08;12.15;;;;;;;;;;5054083;28;20052;-85
2022/12/02 11:09:01;;;;;;;20.03;11.70;;;;;;;;;;5053267;28;20032;-86
2022/12/02 11:11:26;;;;;;;17.42;10.82;;;;;;;;;;5054994;28;20542;-86
2022/12/02 11:13:56;;;;;;;18.87;10.90;;;;;;;;;;5053220;28;20044;-85
2022/12/02 11:16:27;;;;;;;18.90;11.48;;;;;;;;;;5053216;28;20072;-87
2022/12/02 11:18:52;;;;;;;;;;;;;;;;;;5055081;28;20056;-84
2022/12/02 11:21:26;;;;;;;19.03;11.10;;;;;;;;;;5053527;28;19919;-86
2022/12/02 11:24:12;;;;;;;18.20;10.82;;;;;;;;;;5053823;28;20282;-85
2022/12/02 11:26:56;;;;;;;15.20;9.27;;;;;;;;;;5040120;28;20040;-89
2022/12/02 11:29:21;;;;;;;17.50;10.18;;;;;;;;;;5056304;28;20029;-87
2022/12/02 11:32:00;;;;;;;15.90;9.53;;;;;;;;;;5057190;28;20561;-86
2022/12/02 11:34:38;;;;;;;16.25;9.27;;;;;;;;;;5054405;28;20282;-88
2022/12/02 11:37:22;;;;;;;16.13;9.93;;;;;;;;;;5054239;28;20033;-85
2022/12/02 11:39:47;;;;;;;14.55;8.77;;;;;;;;;;5052697;28;20037;-85
2022/12/02 11:42:20;;;;;;;14.18;8.20;;;;;;;;;;5051528;28;20037;-86
2022/12/02 11:44:46;;;;;;;12.65;7.78;;;;;;;;;;5050946;28;20063;-86
2022/12/02 11:47:22;;;;;;;12.10;7.72;;;;;;;;;;5049737;28;20037;-85
2022/12/02 11:49:47;;;;;;;13.05;7.63;;;;;;;;;;5050452;28;20037;-87
2022/12/02 11:52:18;;;;;;;10.85;7.40;;;;;;;;;;5050025;28;20518;-87
2022/12/02 11:54:48;;;;;;;12.55;7.85;;;;;;;;;;5049565;28;20036;-87
2022/12/02 11:57:18;;;;;;;12.47;7.10;;;;;;;;;;5057086;28;20039;-88
2022/12/02 11:59:47;;;;;;;9.63;6.40;;;;;;;;;;5061502;28;20037;-88
2022/12/02 12:02:12;;;;;;;11.90;7.35;;;;;;;;;;5061529;28;20037;-87
2022/12/02 12:04:37;;;;;;;10.77;6.65;;;;;;;;;;5060380;28;20060;-87
2022/12/02 12:07:03;;;;;;;12.40;6.95;;;;;;;;;;5059413;28;20040;-88
2022/12/02 12:09:29;;;;;;;10.68;6.63;;;;;;;;;;5058688;28;20061;-87
2022/12/02 12:12:11;;;;;;;9.55;6.05;;;;;;;;;;5059234;28;20040;-87
2022/12/02 12:14:54;;;;;;;9.93;6.28;;;;;;;;;;5054614;28;20029;-87
2022/12/02 12:17:38;;;;;;;11.35;7.20;;;;;;;;;;5033172;28;20091;-86
2022/12/02 12:20:09;;;;;;;9.52;6.05;;;;;;;;;;5033948;28;20041;-90
2022/12/02 12:22:34;;;;;;;8.45;5.32;;;;;;;;;;5031593;28;20037;-87
2022/12/02 12:25:18;;;;;;;9.03;5.60;;;;;;;;;;5030700;28;20072;-86
2022/12/02 12:27:44;;;;;;;9.48;5.68;;;;;;;;;;5033086;28;20265;-87
2022/12/02 12:30:11;;;;;;;8.73;6.00;;;;;;;;;;5036566;28;20038;-89
2022/12/02 12:32:37;;;;;;;9.63;5.47;;;;;;;;;;5036865;28;20272;-86
2022/12/02 12:35:02;;;;;;;7.85;5.53;;;;;;;;;;5037904;28;20034;-86
2022/12/02 12:37:28;;;;;;;6.82;5.10;;;;;;;;;;5039060;28;20071;-87
2022/12/02 12:39:53;;;;;;;8.68;6.00;;;;;;;;;;5036116;28;20068;-86
2022/12/02 12:42:18;;;;;;;8.13;5.67;;;;;;;;;;5037973;28;20093;-89
2022/12/02 12:44:44;;;;;;;8.30;5.55;;;;;;;;;;5039135;28;20292;-88
2022/12/02 12:47:09;;;;;;;9.05;5.63;;;;;;;;;;5039294;28;20038;-86
2022/12/02 12:49:34;;;;;;;7.03;4.95;;;;;;;;;;5040309;28;20033;-87
2022/12/02 12:52:00;;;;;;;7.50;4.78;;;;;;;;;;5041238;28;20041;-86
2022/12/02 12:54:25;;;;;;;7.43;5.07;;;;;;;;;;5039731;28;20101;-88
2022/12/02 12:56:50;;;;;;;7.60;4.75;;;;;;;;;;5038918;28;20116;-88
2022/12/02 12:59:15;;;;;;;8.07;5.37;;;;;;;;;;5037077;28;20052;-87
2022/12/02 13:01:42;;;;;;;8.00;5.47;;;;;;;;;;5039230;28;20265;-86
2022/12/02 13:04:14;;;;;;;7.03;5.00;;;;;;;;;;5037861;28;20029;-88
2022/12/02 13:06:40;;;;;;;8.55;5.80;;;;;;;;;;5038271;28;20060;-87
2022/12/02 13:09:05;;;;;;;7.75;4.95;;;;;;;;;;5038769;28;20439;-86
2022/12/02 13:11:30;;;;;;;7.25;4.80;;;;;;;;;;5039456;28;20292;-87
2022/12/02 13:13:55;;;;;;;7.50;4.93;;;;;;;-145.28;83.93;71344.41;5040915;28;20113;-89
2022/12/02 13:16:22;;;;;;;7.93;5.07;;;;;;;;;;5043310;28;20288;-86
2022/12/02 13:18:47;;;;;;;7.22;4.95;;;;;;;;;;5041014;28;20037;-87
2022/12/02 13:21:12;;;;;;;7.67;5.10;;;;;;;;;;5042587;28;20034;-87
2022/12/02 13:23:37;;;;;;;7.75;5.70;;;;;;;;;;5040925;28;20271;-88
2022/12/02 13:26:03;;;;;;;8.60;6.07;;;;;;;;;;5040794;28;20239;-88
2022/12/02 13:28:28;;;;;;;6.95;5.18;;;;;;;;;;5036377;28;20292;-89
2022/12/02 13:30:54;;;;;;;8.07;5.90;;;;;;;;;;5032151;28;20041;-87
2022/12/02 13:33:20;;;;;;;9.25;6.30;;;;;;;;;;5033476;28;20322;-86
2022/12/02 13:35:45;;;;;;;9.13;6.10;;;;;;;;;;5031668;28;20468;-88
2022/12/02 13:38:10;;;;;;;8.27;6.00;;;;;;;;;;5032313;28;20041;-87
2022/12/02 13:40:36;;;;;;;10.32;6.90;;;;;;;;;;5033596;28;20041;-85
2022/12/02 13:43:01;;;;;;;8.30;5.70;;;;;;;;;;5033192;28;20066;-88
2022/12/02 13:45:26;;;;;;;8.70;6.03;;;;;;;;;;5037450;28;20041;-87
2022/12/02 13:47:52;;;;;;;10.57;5.88;;;;;;;;;;5040208;28;20033;-90
2022/12/02 13:50:17;;;;;;;9.07;6.35;;;;;;;;;;5034521;28;20033;-87
2022/12/02 13:52:43;;;;;;;7.80;5.50;;;;;;;;;;5031549;28;20049;-87
2022/12/02 13:55:08;;;;;;;9.38;6.38;;;;;;;;;;5030970;28;20264;-87
2022/12/02 13:57:33;;;;;;;8.07;5.78;;;;;;;;;;5031758;28;20029;-88
2022/12/02 13:59:59;;;;;;;8.93;6.10;;;;;;;;;;5031310;28;20489;-88
2022/12/02 14:02:24;;;;;;;8.32;6.10;;;;;;;;;;5030433;28;20164;-88
2022/12/02 14:04:49;;;;;;;9.63;6.35;;;;;;;;;;5031697;28;20046;-87
2022/12/02 14:07:15;;;;;;;9.68;6.35;;;;;;;;;;5031479;28;20037;-88
2022/12/02 14:09:40;;;;;;;9.82;6.82;;;;;;;;;;5030901;28;20140;-88
2022/12/02 14:12:06;;;;;;;9.52;6.45;;;;;;;;;;5031647;28;20429;-88
2022/12/02 14:14:31;;;;;;;10.63;6.75;;;;;;;;;;5030903;28;20037;-87
2022/12/02 14:16:56;;;;;;;9.20;6.13;;;;;;;;;;5031064;28;20096;-88
2022/12/02 14:19:21;;;;;;;8.93;5.93;;;;;;;;;;5030589;28;20269;-87